createdAt,value
2022-09-20T00:00:51.177Z,99586.06
2022-09-20T00:01:55.119Z,99580.69
2022-09-20T00:02:59.148Z,99580.69
2022-09-20T00:04:05.340Z,99580.88
2022-09-20T00:05:09.968Z,99581.70
2022-09-20T00:06:17.730Z,99584.40
2022-09-20T00:07:21.682Z,99584.40
2022-09-20T00:08:25.580Z,99583.38
2022-09-20T00:09:29.587Z,99587.92
2022-09-20T00:10:37.536Z,99581.70
2022-09-20T00:11:44.357Z,99587.09
2022-09-20T00:12:47.079Z,99587.09
2022-09-20T00:13:53.640Z,99585.39
2022-09-20T00:14:57.578Z,99583.72
2022-09-20T00:16:03.080Z,99582.89
2022-09-20T00:17:10.556Z,99585.73
2022-09-20T00:18:14.200Z,99585.73
2022-09-20T00:19:22.802Z,99577.03
2022-09-20T00:20:27.367Z,99539.78
2022-09-20T00:21:33.349Z,99539.78
2022-09-20T00:22:37.266Z,99581.73
2022-09-20T00:23:43.101Z,99583.40
2022-09-20T00:24:49.107Z,99579.88
2022-09-20T00:25:58.431Z,99579.88
2022-09-20T00:27:03.198Z,99591.66
2022-09-20T00:28:08.045Z,99578.02
2022-09-20T00:29:12.078Z,99578.02
2022-09-20T00:30:16.370Z,99572.84
2022-09-20T00:31:22.144Z,99575.68
2022-09-20T00:32:26.206Z,99574.02
2022-09-20T00:33:30.149Z,99570.66
2022-09-20T00:34:34.093Z,99570.66
2022-09-20T00:35:38.106Z,99567.29
2022-09-20T00:36:42.298Z,99567.64
2022-09-20T00:37:46.258Z,99570.33
2022-09-20T00:38:51.776Z,99570.33
2022-09-20T00:39:57.334Z,99566.80
2022-09-20T00:41:01.393Z,99562.61
2022-09-20T00:42:07.321Z,99567.16
2022-09-20T00:43:15.944Z,99563.79
2022-09-20T00:44:57.384Z,99563.79
2022-09-20T00:46:03.130Z,99556.91
2022-09-20T00:47:09.498Z,99558.09
2022-09-20T00:48:34.504Z,99558.09
2022-09-20T00:49:31.589Z,99555.75
2022-09-20T00:50:47.635Z,99550.53
2022-09-20T00:51:54.639Z,99551.55
2022-09-20T00:53:16.446Z,99547.86
2022-09-20T00:54:23.276Z,99547.86
2022-09-20T00:55:28.848Z,99550.89
2022-09-20T00:56:36.356Z,99550.89
2022-09-20T00:57:41.949Z,99552.76
2022-09-20T00:58:48.888Z,99558.29
2022-09-20T00:59:55.087Z,99563.02
2022-09-20T01:01:00.032Z,99563.02
2022-09-20T01:02:07.069Z,99554.62
2022-09-20T01:03:14.092Z,99549.59
2022-09-20T01:04:21.201Z,99549.59
2022-09-20T01:05:26.053Z,99558.64
2022-09-20T01:06:31.767Z,99561.33
2022-09-20T01:07:36.121Z,99554.10
2022-09-20T01:08:43.239Z,99561.33
2022-09-20T01:09:47.190Z,99555.95
2022-09-20T01:10:53.252Z,99555.95
2022-09-20T01:11:58.516Z,99555.80
2022-09-20T01:13:02.687Z,99555.61
2022-09-20T01:14:09.829Z,99562.01
2022-09-20T01:15:15.388Z,99563.67
2022-09-20T01:16:21.253Z,99565.37
2022-09-20T01:17:28.198Z,99559.13
2022-09-20T01:18:36.226Z,99559.13
2022-09-20T01:20:08.913Z,99567.19
2022-09-20T01:21:15.561Z,99561.66
2022-09-20T01:22:46.326Z,99556.13
2022-09-20T01:23:53.287Z,99560.48
2022-09-20T01:25:06.024Z,99556.97
2022-09-20T01:26:16.720Z,99556.78
2022-09-20T01:27:46.122Z,99556.78
2022-09-20T01:28:52.574Z,99558.48
2022-09-20T01:30:05.284Z,99558.48
2022-09-20T01:31:24.385Z,99556.78
2022-09-20T01:32:31.493Z,99561.32
2022-09-20T01:33:56.361Z,99560.48
2022-09-20T01:35:02.298Z,99564.01
2022-09-20T01:36:08.772Z,99561.32
2022-09-20T01:37:18.326Z,99559.66
2022-09-20T01:38:30.906Z,99563.33
2022-09-20T01:39:57.208Z,99561.51
2022-09-20T01:41:16.020Z,99560.98
2022-09-20T01:42:24.758Z,99564.69
2022-09-20T01:43:31.804Z,99561.17
2022-09-20T01:45:02.747Z,99565.19
2022-09-20T01:46:32.238Z,99560.99
2022-09-20T01:47:50.396Z,99564.20
2022-09-20T01:48:57.381Z,99560.01
2022-09-20T01:50:18.025Z,99556.64
2022-09-20T01:51:35.360Z,99557.81
2022-09-20T01:53:00.548Z,99556.98
2022-09-20T01:54:31.675Z,99552.60
2022-09-20T01:55:56.807Z,99552.60
2022-09-20T01:57:27.175Z,99559.14
2022-09-20T01:59:23.057Z,99559.14
2022-09-20T02:00:14.994Z,99550.44
2022-09-20T02:01:51.794Z,99553.28
2022-09-20T02:03:16.477Z,99555.28
2022-09-20T02:04:48.874Z,99561.67
2022-09-20T02:06:16.804Z,99557.32
2022-09-20T02:07:32.678Z,99560.01
2022-09-20T02:08:44.474Z,99557.32
2022-09-20T02:09:57.448Z,99557.32
2022-09-20T02:11:21.103Z,99554.45
2022-09-20T02:12:46.038Z,99559.67
2022-09-20T02:14:12.391Z,99558.80
2022-09-20T02:15:34.208Z,99561.67
2022-09-20T02:16:56.589Z,99562.69
2022-09-20T02:18:15.678Z,99562.69
2022-09-20T02:19:28.169Z,99560.99
2022-09-20T02:20:41.426Z,99566.36
2022-09-20T02:22:00.095Z,99562.69
2022-09-20T02:23:15.413Z,99562.69
2022-09-20T02:24:31.161Z,99563.67
2022-09-20T02:25:57.330Z,99566.36
2022-09-20T02:27:37.118Z,99561.83
2022-09-20T02:28:49.790Z,99565.38
2022-09-20T02:30:13.492Z,99568.06
2022-09-20T02:31:35.710Z,99569.73
2022-09-20T02:33:08.461Z,99569.73
2022-09-20T02:34:20.936Z,99573.58
2022-09-20T02:35:45.256Z,99572.75
2022-09-20T02:37:00.744Z,99571.05
2022-09-20T02:38:10.763Z,99566.70
2022-09-20T02:39:23.508Z,99570.22
2022-09-20T02:40:41.936Z,99572.90
2022-09-20T02:42:20.654Z,99568.36
2022-09-20T02:43:42.681Z,99565.03
2022-09-20T02:44:51.113Z,99561.67
2022-09-20T02:46:13.226Z,99561.67
2022-09-20T02:47:35.471Z,99568.05
2022-09-20T02:49:00.218Z,99564.84
2022-09-20T02:50:29.785Z,99567.70
2022-09-20T02:51:59.041Z,99561.66
2022-09-20T02:53:20.902Z,99555.61
2022-09-20T02:54:39.580Z,99556.63
2022-09-20T02:55:49.260Z,99550.58
2022-09-20T02:56:58.844Z,99549.74
2022-09-20T02:58:31.265Z,99550.58
2022-09-20T02:59:40.703Z,99547.89
2022-09-20T03:00:56.877Z,99546.22
2022-09-20T03:02:12.858Z,99546.22
2022-09-20T03:03:28.585Z,99542.52
2022-09-20T03:04:50.402Z,99539.16
2022-09-20T03:06:32.049Z,99539.16
2022-09-20T03:07:50.081Z,99552.08
2022-09-20T03:09:02.954Z,99552.08
2022-09-20T03:10:24.331Z,99559.30
2022-09-20T03:11:31.292Z,99560.28
2022-09-20T03:12:44.119Z,99564.97
2022-09-20T03:14:07.453Z,99569.34
2022-09-20T03:15:32.440Z,99570.33
2022-09-20T03:16:52.426Z,99563.27
2022-09-20T03:18:17.559Z,99570.48
2022-09-20T03:19:52.646Z,99569.80
2022-09-20T03:21:13.749Z,99568.28
2022-09-20T03:22:38.646Z,99568.28
2022-09-20T03:24:03.651Z,99575.34
2022-09-20T03:25:16.222Z,99575.34
2022-09-20T03:26:52.064Z,99567.30
2022-09-20T03:28:15.342Z,99567.30
2022-09-20T03:29:33.973Z,99576.33
2022-09-20T03:30:53.286Z,99577.34
2022-09-20T03:32:21.053Z,99577.34
2022-09-20T03:33:39.701Z,99582.72
2022-09-20T03:34:47.903Z,99580.03
2022-09-20T03:36:27.803Z,99579.02
2022-09-20T03:37:55.691Z,99579.55
2022-09-20T03:39:35.671Z,99578.53
2022-09-20T03:41:10.534Z,99592.78
2022-09-20T03:42:23.240Z,99582.77
2022-09-20T03:43:53.781Z,99585.45
2022-09-20T03:45:17.033Z,99585.45
2022-09-20T03:46:24.081Z,99583.45
2022-09-20T03:47:58.366Z,99583.45
2022-09-20T03:49:24.491Z,99583.45
2022-09-20T03:50:46.495Z,99591.31
2022-09-20T03:52:05.334Z,99592.69
2022-09-20T03:53:34.718Z,99593.19
2022-09-20T03:54:50.373Z,99587.83
2022-09-20T03:56:02.928Z,99590.70
2022-09-20T03:57:30.783Z,99585.50
2022-09-20T03:58:46.508Z,99586.86
2022-09-20T04:00:10.923Z,99586.86
2022-09-20T04:01:50.933Z,99589.89
2022-09-20T04:03:03.703Z,99591.22
2022-09-20T04:04:45.206Z,99600.30
2022-09-20T04:05:54.763Z,99598.27
2022-09-20T04:07:10.026Z,99600.77
2022-09-20T04:08:31.908Z,99602.24
2022-09-20T04:10:03.201Z,99599.86
2022-09-20T04:11:22.308Z,99597.98
2022-09-20T04:12:34.953Z,99597.98
2022-09-20T04:15:01.681Z,99606.86
2022-09-20T04:15:26.816Z,99599.67
2022-09-20T04:16:23.646Z,99606.86
2022-09-20T04:17:47.360Z,99600.96
2022-09-20T04:19:06.101Z,99608.22
2022-09-20T04:20:47.802Z,99603.55
2022-09-20T04:22:00.094Z,99601.23
2022-09-20T04:23:09.611Z,99601.23
2022-09-20T04:24:19.048Z,99604.68
2022-09-20T04:25:26.032Z,99606.39
2022-09-20T04:26:33.964Z,99610.98
2022-09-20T04:27:42.498Z,99610.98
2022-09-20T04:28:49.431Z,99612.59
2022-09-20T04:30:08.215Z,99612.59
2022-09-20T04:31:31.796Z,99613.30
2022-09-20T04:32:58.174Z,99618.05
2022-09-20T04:34:06.750Z,99618.39
2022-09-20T04:35:34.675Z,99618.39
2022-09-20T04:37:00.065Z,99614.63
2022-09-20T04:38:06.278Z,99614.63
2022-09-20T04:39:28.254Z,99618.28
2022-09-20T04:40:44.148Z,99615.52
2022-09-20T04:41:55.086Z,99621.13
2022-09-20T04:43:24.289Z,99627.65
2022-09-20T04:44:52.262Z,99623.73
2022-09-20T04:46:05.002Z,99619.83
2022-09-20T04:47:37.508Z,99622.32
2022-09-20T04:49:06.835Z,99623.97
2022-09-20T04:50:41.241Z,99612.94
2022-09-20T04:52:09.394Z,99612.94
2022-09-20T04:53:25.043Z,99615.94
2022-09-20T04:54:40.418Z,99620.40
2022-09-20T04:55:53.018Z,99614.05
2022-09-20T04:57:19.161Z,99616.44
2022-09-20T04:58:39.811Z,99616.13
2022-09-20T05:00:12.560Z,99608.41
2022-09-20T05:01:44.910Z,99612.50
2022-09-20T05:03:17.514Z,99620.08
2022-09-20T05:04:44.011Z,99620.08
2022-09-20T05:06:21.212Z,99616.25
2022-09-20T05:07:30.998Z,99609.20
2022-09-20T05:09:06.468Z,99607.50
2022-09-20T05:10:28.731Z,99611.89
2022-09-20T05:12:04.424Z,99611.89
2022-09-20T05:13:13.474Z,99605.47
2022-09-20T05:16:14.476Z,99606.30
2022-09-20T05:17:40.030Z,99606.14
2022-09-20T05:18:54.436Z,99604.95
2022-09-20T05:20:40.168Z,99604.95
2022-09-20T05:23:45.413Z,99610.28
2022-09-20T05:37:13.433Z,99604.09
2022-09-20T05:38:50.949Z,99604.09
2022-09-20T05:40:03.673Z,99604.30
2022-09-20T05:41:16.577Z,99607.35
2022-09-20T05:42:37.204Z,99607.35
2022-09-20T05:43:44.202Z,99604.46
2022-09-20T05:45:24.499Z,99597.58
2022-09-20T05:47:00.874Z,99600.27
2022-09-20T05:48:18.256Z,99598.97
2022-09-20T05:49:35.728Z,99596.91
2022-09-20T05:50:48.920Z,99596.91
2022-09-20T05:51:55.901Z,99601.47
2022-09-20T05:53:14.925Z,99600.63
2022-09-20T05:54:38.246Z,99595.25
2022-09-20T05:55:50.965Z,99601.77
2022-09-20T05:57:29.857Z,99601.77
2022-09-20T05:58:45.682Z,99595.11
2022-09-20T05:59:58.578Z,99595.11
2022-09-20T06:01:27.836Z,99591.15
2022-09-20T06:02:49.475Z,99589.95
2022-09-20T06:04:08.584Z,99588.84
2022-09-20T06:05:21.665Z,99584.94
2022-09-20T06:06:46.780Z,99584.94
2022-09-20T06:08:23.221Z,99584.35
2022-09-20T06:09:46.126Z,99584.35
2022-09-20T06:11:24.701Z,99591.33
2022-09-20T06:12:56.995Z,99574.63
2022-09-20T06:14:21.705Z,99588.73
2022-09-20T06:15:39.875Z,99588.73
2022-09-20T06:16:55.929Z,99587.25
2022-09-20T06:18:20.900Z,99586.05
2022-09-20T06:19:39.569Z,99586.05
2022-09-20T06:21:21.207Z,99580.47
2022-09-20T06:25:05.773Z,99584.56
2022-09-20T06:25:12.415Z,99589.41
2022-09-20T06:26:20.087Z,99588.29
2022-09-20T06:27:27.058Z,99582.61
2022-09-20T06:28:36.095Z,99585.39
2022-09-20T06:29:43.070Z,99595.52
2022-09-20T06:30:52.662Z,99592.81
2022-09-20T06:31:56.817Z,99599.88
2022-09-20T06:33:09.940Z,99605.27
2022-09-20T06:35:03.918Z,99597.84
2022-09-20T06:35:39.651Z,99597.22
2022-09-20T06:36:39.127Z,99603.81
2022-09-20T06:37:48.948Z,99599.28
2022-09-20T06:38:58.765Z,99605.14
2022-09-20T06:40:27.089Z,99602.25
2022-09-20T06:41:34.180Z,99602.25
2022-09-20T06:42:40.028Z,99608.16
2022-09-20T06:43:46.247Z,99600.16
2022-09-20T06:44:51.590Z,99603.35
2022-09-20T06:45:55.684Z,99596.72
2022-09-20T06:47:12.733Z,99600.74
2022-09-20T06:48:08.819Z,99598.99
2022-09-20T06:49:19.293Z,99600.28
2022-09-20T06:50:30.632Z,99598.91
2022-09-20T06:51:39.047Z,99608.20
2022-09-20T06:52:46.971Z,99598.53
2022-09-20T06:53:55.253Z,99602.52
2022-09-20T06:55:02.515Z,99604.66
2022-09-20T06:56:13.631Z,99602.80
2022-09-20T06:58:26.622Z,99609.23
2022-09-20T06:59:37.745Z,99605.13
2022-09-20T07:00:45.566Z,99607.64
2022-09-20T07:01:47.980Z,99606.06
2022-09-20T07:02:51.975Z,99606.06
2022-09-20T07:03:55.981Z,99609.42
2022-09-20T07:05:00.031Z,99601.11
2022-09-20T07:06:31.482Z,99601.11
2022-09-20T07:07:17.026Z,99601.49
2022-09-20T07:08:22.581Z,99602.91
2022-09-20T07:09:28.044Z,99608.09
2022-09-20T07:10:33.279Z,99608.09
2022-09-20T07:11:38.807Z,99605.78
2022-09-20T07:12:42.774Z,99616.77
2022-09-20T07:13:51.284Z,99599.72
2022-09-20T07:14:57.845Z,99610.52
2022-09-20T07:16:06.348Z,99610.52
2022-09-20T07:17:14.829Z,99612.59
2022-09-20T07:18:24.291Z,99608.19
2022-09-20T07:19:26.027Z,99609.23
2022-09-20T07:20:30.421Z,99609.23
2022-09-20T07:21:34.522Z,99606.63
2022-09-20T07:22:38.708Z,99606.63
2022-09-20T07:23:44.584Z,99595.17
2022-09-20T07:24:48.953Z,99601.98
2022-09-20T07:25:56.305Z,99601.98
2022-09-20T07:27:04.752Z,99603.36
2022-09-20T07:28:08.715Z,99602.98
2022-09-20T07:29:14.928Z,99602.98
2022-09-20T07:30:22.815Z,99599.91
2022-09-20T07:31:28.626Z,99605.96
2022-09-20T07:32:35.698Z,99597.12
2022-09-20T07:33:39.731Z,99604.84
2022-09-20T07:34:45.203Z,99604.28
2022-09-20T07:35:50.129Z,99605.98
2022-09-20T07:36:56.331Z,99609.80
2022-09-20T07:38:00.095Z,99614.16
2022-09-20T07:39:04.267Z,99612.95
2022-09-20T07:40:10.432Z,99620.22
2022-09-20T07:41:14.675Z,99625.61
2022-09-20T07:42:18.629Z,99624.78
2022-09-20T07:43:24.121Z,99621.42
2022-09-20T07:44:28.163Z,99626.99
2022-09-20T07:45:32.752Z,99623.38
2022-09-20T07:46:37.873Z,99633.31
2022-09-20T07:47:43.055Z,99633.31
2022-09-20T07:48:47.084Z,99629.33
2022-09-20T07:49:51.533Z,99629.98
2022-09-20T07:50:58.774Z,99632.48
2022-09-20T07:52:08.041Z,99634.34
2022-09-20T07:53:12.118Z,99634.44
2022-09-20T07:54:16.732Z,99633.23
2022-09-20T07:55:23.514Z,99627.83
2022-09-20T07:56:27.449Z,99635.27
2022-09-20T07:57:34.409Z,99635.27
2022-09-20T07:58:38.604Z,99630.53
2022-09-20T07:59:45.230Z,99632.28
2022-09-20T08:00:56.746Z,99640.95
2022-09-20T08:02:00.872Z,99637.39
2022-09-20T08:03:04.902Z,99635.06
2022-09-20T08:04:12.591Z,99640.45
2022-09-20T08:05:16.683Z,99640.45
2022-09-20T08:06:22.204Z,99640.83
2022-09-20T08:07:29.275Z,99640.37
2022-09-20T08:08:38.735Z,99640.37
2022-09-20T08:09:42.908Z,99637.67
2022-09-20T08:10:47.057Z,99639.16
2022-09-20T08:11:53.204Z,99639.16
2022-09-20T08:14:08.036Z,99632.08
2022-09-20T08:15:12.027Z,99632.20
2022-09-20T08:16:17.611Z,99626.80
2022-09-20T08:17:21.642Z,99635.89
2022-09-20T08:18:25.635Z,99631.07
2022-09-20T08:19:29.638Z,99635.14
2022-09-20T08:20:38.867Z,99634.14
2022-09-20T08:21:44.468Z,99648.17
2022-09-20T08:23:06.416Z,99637.25
2022-09-20T08:23:55.784Z,99630.70
2022-09-20T08:25:03.057Z,99633.59
2022-09-20T08:26:10.097Z,99635.80
2022-09-20T08:27:15.713Z,99629.20
2022-09-20T08:28:19.743Z,99633.30
2022-09-20T08:29:23.837Z,99639.44
2022-09-20T08:30:28.005Z,99631.88
2022-09-20T08:32:48.757Z,99641.33
2022-09-20T08:33:55.986Z,99636.14
2022-09-20T08:35:03.210Z,99636.14
2022-09-20T08:36:09.309Z,99636.14
2022-09-20T08:37:13.407Z,99635.11
2022-09-20T08:40:31.005Z,99631.18
2022-09-20T08:40:50.233Z,99633.74
2022-09-20T08:41:38.215Z,99631.18
2022-09-20T08:42:49.290Z,99626.16
2022-09-20T08:44:00.915Z,99628.41
2022-09-20T08:45:07.904Z,99630.63
2022-09-20T08:46:16.404Z,99623.75
2022-09-20T08:47:26.103Z,99620.08
2022-09-20T08:48:33.268Z,99627.52
2022-09-20T08:49:39.121Z,99620.64
2022-09-20T08:50:44.740Z,99616.44
2022-09-20T08:51:49.389Z,99615.58
2022-09-20T08:53:00.263Z,99619.30
2022-09-20T08:54:02.444Z,99623.02
2022-09-20T08:55:18.886Z,99620.33
2022-09-20T08:56:23.380Z,99610.19
2022-09-20T08:57:30.358Z,99614.22
2022-09-20T08:58:34.449Z,99609.20
2022-09-20T08:59:38.510Z,99612.89
2022-09-20T09:00:45.768Z,99614.28
2022-09-20T09:01:51.480Z,99612.05
2022-09-20T09:03:01.236Z,99610.19
2022-09-20T09:04:32.482Z,99604.11
2022-09-20T09:06:00.924Z,99607.75
2022-09-20T09:06:49.642Z,99607.75
2022-09-20T09:07:57.246Z,99604.69
2022-09-20T09:09:01.260Z,99610.08
2022-09-20T09:10:10.346Z,99616.80
2022-09-20T09:11:16.723Z,99604.16
2022-09-20T09:12:29.448Z,99601.30
2022-09-20T09:13:53.048Z,99600.27
2022-09-20T09:15:02.974Z,99595.18
2022-09-20T09:16:12.844Z,99594.81
2022-09-20T09:17:27.539Z,99592.12
2022-09-20T09:18:34.204Z,99592.12
2022-09-20T09:19:49.829Z,99592.25
2022-09-20T09:20:54.200Z,99592.25
2022-09-20T09:22:00.796Z,99590.31
2022-09-20T09:23:07.418Z,99590.31
2022-09-20T09:24:19.990Z,99594.97
2022-09-20T09:25:26.809Z,99594.97
2022-09-20T09:26:39.240Z,99592.20
2022-09-20T09:28:10.771Z,99593.16
2022-09-20T09:29:20.529Z,99594.59
2022-09-20T09:30:36.572Z,99594.59
2022-09-20T09:31:41.852Z,99601.98
2022-09-20T09:32:45.825Z,99596.20
2022-09-20T09:33:49.841Z,99596.20
2022-09-20T09:34:53.828Z,99601.89
2022-09-20T09:36:39.748Z,99604.66
2022-09-20T09:37:35.331Z,99599.27
2022-09-20T09:38:41.327Z,99604.84
2022-09-20T09:39:45.331Z,99610.44
2022-09-20T09:40:55.471Z,99610.44
2022-09-20T09:42:00.778Z,99608.83
2022-09-20T09:43:09.427Z,99608.83
2022-09-20T09:44:24.970Z,99609.95
2022-09-20T09:45:34.311Z,99612.36
2022-09-20T09:46:40.025Z,99612.36
2022-09-20T09:47:44.027Z,99607.33
2022-09-20T09:48:49.217Z,99612.40
2022-09-20T09:50:04.819Z,99608.38
2022-09-20T09:51:13.756Z,99602.52
2022-09-20T09:52:19.728Z,99607.45
2022-09-20T09:53:24.052Z,99597.37
2022-09-20T09:54:35.848Z,99592.34
2022-09-20T09:55:59.097Z,99602.09
2022-09-20T09:57:17.432Z,99594.38
2022-09-20T09:58:28.525Z,99597.08
2022-09-20T09:59:58.281Z,99593.75
2022-09-20T10:01:05.672Z,99593.75
2022-09-20T10:02:38.094Z,99593.75
2022-09-20T10:03:53.992Z,99586.86
2022-09-20T10:05:02.623Z,99594.08
2022-09-20T10:06:29.384Z,99587.69
2022-09-20T10:07:39.469Z,99588.95
2022-09-20T10:08:52.047Z,99588.95
2022-09-20T10:10:04.533Z,99596.58
2022-09-20T10:11:17.222Z,99589.48
2022-09-20T10:12:43.583Z,99571.66
2022-09-20T10:14:04.004Z,99586.13
2022-09-20T10:15:13.534Z,99578.05
2022-09-20T10:16:35.732Z,99577.05
2022-09-20T10:17:42.881Z,99577.05
2022-09-20T10:19:01.525Z,99570.83
2022-09-20T10:20:14.470Z,99570.83
2022-09-20T10:21:24.412Z,99566.08
2022-09-20T10:22:34.027Z,99569.63
2022-09-20T10:24:02.452Z,99436.13
2022-09-20T10:25:13.308Z,99436.13
2022-09-20T10:26:46.258Z,99565.97
2022-09-20T10:28:10.952Z,99568.30
2022-09-20T10:29:26.555Z,99568.30
2022-09-20T10:30:36.471Z,99562.91
2022-09-20T10:32:10.123Z,99562.91
2022-09-20T10:33:20.319Z,99557.82
2022-09-20T10:34:33.377Z,99559.78
2022-09-20T10:36:00.284Z,99566.50
2022-09-20T10:37:08.853Z,99551.99
2022-09-20T10:38:24.485Z,99557.38
2022-09-20T10:39:41.451Z,99558.58
2022-09-20T10:41:10.891Z,99564.44
2022-09-20T10:42:26.632Z,99549.96
2022-09-20T10:44:06.842Z,99572.59
2022-09-20T10:45:55.982Z,99553.47
2022-09-20T10:47:04.446Z,99555.12
2022-09-20T10:48:14.427Z,99553.47
2022-09-20T10:49:30.028Z,99556.79
2022-09-20T10:50:40.158Z,99553.73
2022-09-20T10:52:03.366Z,99550.11
2022-09-20T10:53:24.626Z,99552.14
2022-09-20T10:54:45.925Z,99554.16
2022-09-20T10:55:52.889Z,99551.17
2022-09-20T10:57:22.962Z,99550.17
2022-09-20T10:58:32.538Z,99552.94
2022-09-20T10:59:48.521Z,99546.15
2022-09-20T11:00:55.698Z,99545.78
2022-09-20T11:02:14.669Z,99543.75
2022-09-20T11:03:53.783Z,99543.75
2022-09-20T11:05:00.768Z,99544.48
2022-09-20T11:06:13.735Z,99544.48
2022-09-20T11:07:32.792Z,99544.13
2022-09-20T11:08:39.601Z,99538.27
2022-09-20T11:09:46.627Z,99536.04
2022-09-20T11:10:53.687Z,99536.04
2022-09-20T11:12:06.359Z,99537.70
2022-09-20T11:13:22.418Z,99537.70
2022-09-20T11:14:41.298Z,99535.37
2022-09-20T11:16:07.733Z,99537.91
2022-09-20T11:17:23.528Z,99541.13
2022-09-20T11:18:39.343Z,99541.13
2022-09-20T11:19:49.295Z,99485.50
2022-09-20T11:21:05.362Z,99530.89
2022-09-20T11:22:18.253Z,99531.75
2022-09-20T11:23:30.867Z,99545.22
2022-09-20T11:25:58.703Z,99535.80
2022-09-20T11:27:21.006Z,99534.78
2022-09-20T11:28:28.089Z,99534.44
2022-09-20T11:29:43.516Z,99534.44
2022-09-20T11:30:53.289Z,99528.49
2022-09-20T11:32:00.288Z,99542.80
2022-09-20T11:33:19.024Z,99532.52
2022-09-20T11:34:33.205Z,99532.52
2022-09-20T11:35:47.478Z,99532.61
2022-09-20T11:37:02.668Z,99530.58
2022-09-20T11:38:18.387Z,99530.58
2022-09-20T11:39:43.226Z,99536.93
2022-09-20T11:40:50.283Z,99536.93
2022-09-20T11:41:57.088Z,99525.50
2022-09-20T11:43:05.751Z,99525.50
2022-09-20T11:44:15.971Z,99528.78
2022-09-20T11:45:26.349Z,99528.78
2022-09-20T11:46:40.692Z,99523.31
2022-09-20T11:47:54.816Z,99521.27
2022-09-20T11:49:01.996Z,99523.05
2022-09-20T11:50:28.779Z,99524.62
2022-09-20T11:51:50.462Z,99524.62
2022-09-20T11:53:20.016Z,99519.61
2022-09-20T11:56:40.301Z,99528.44
2022-09-20T11:57:44.500Z,99525.54
2022-09-20T11:58:50.884Z,99519.31
2022-09-20T12:00:00.449Z,99511.17
2022-09-20T12:01:08.947Z,99511.17
2022-09-20T12:02:36.865Z,99523.56
2022-09-20T12:03:44.430Z,99523.56
2022-09-20T12:04:54.499Z,99521.77
2022-09-20T12:06:05.992Z,99523.74
2022-09-20T12:07:24.999Z,99523.16
2022-09-20T12:08:34.645Z,99528.00
2022-09-20T12:09:44.547Z,99522.43
2022-09-20T12:11:01.870Z,99522.43
2022-09-20T12:12:33.060Z,99532.36
2022-09-20T12:13:41.139Z,99532.36
2022-09-20T12:14:48.099Z,99534.88
2022-09-20T12:16:01.076Z,99532.94
2022-09-20T12:17:05.083Z,99530.06
2022-09-20T12:18:31.214Z,99529.86
2022-09-20T12:19:38.020Z,99542.14
2022-09-20T12:20:45.059Z,99527.16
2022-09-20T12:22:04.179Z,99531.27
2022-09-20T12:23:41.155Z,99528.67
2022-09-20T12:24:45.720Z,99524.56
2022-09-20T12:26:11.956Z,99524.56
2022-09-20T12:27:24.728Z,99524.02
2022-09-20T12:28:38.790Z,99524.02
2022-09-20T12:29:51.665Z,99522.61
2022-09-20T12:31:25.763Z,99522.61
2022-09-20T12:32:45.083Z,99511.45
2022-09-20T12:34:09.883Z,99512.20
2022-09-20T12:35:39.104Z,99509.51
2022-09-20T12:36:45.744Z,99509.51
2022-09-20T12:37:49.726Z,99502.91
2022-09-20T12:39:05.484Z,99506.61
2022-09-20T12:40:12.563Z,99506.61
2022-09-20T12:41:27.827Z,99505.89
2022-09-20T12:42:32.045Z,99501.50
2022-09-20T12:43:39.054Z,99484.77
2022-09-20T12:44:53.362Z,99493.89
2022-09-20T12:46:03.442Z,99492.95
2022-09-20T12:47:16.123Z,99493.61
2022-09-20T12:48:20.588Z,99497.41
2022-09-20T12:49:33.490Z,99488.75
2022-09-20T12:50:37.630Z,99486.22
2022-09-20T12:51:41.693Z,99491.90
2022-09-20T12:52:48.691Z,99491.90
2022-09-20T12:54:04.753Z,99494.70
2022-09-20T12:55:11.702Z,99487.94
2022-09-20T12:56:22.625Z,99498.13
2022-09-20T12:57:29.939Z,99490.34
2022-09-20T12:58:36.901Z,99491.38
2022-09-20T12:59:42.800Z,99499.16
2022-09-20T13:00:52.680Z,99489.20
2022-09-20T13:01:57.069Z,99489.00
2022-09-20T13:03:17.115Z,99489.00
2022-09-20T13:04:55.029Z,99486.96
2022-09-20T13:06:07.438Z,99495.80
2022-09-20T13:07:34.047Z,99480.91
2022-09-20T13:08:58.864Z,99482.03
2022-09-20T13:10:22.007Z,99477.30
2022-09-20T13:11:46.986Z,99477.30
2022-09-20T13:12:55.715Z,99475.36
2022-09-20T13:14:02.805Z,99483.78
2022-09-20T13:15:09.999Z,99483.78
2022-09-20T13:16:24.429Z,99473.38
2022-09-20T13:17:34.706Z,99471.17
2022-09-20T13:18:59.154Z,99481.09
2022-09-20T13:19:51.024Z,99475.98
2022-09-20T13:20:58.245Z,99475.36
2022-09-20T13:22:21.861Z,99471.34
2022-09-20T13:23:31.570Z,99471.34
2022-09-20T13:24:41.202Z,99472.66
2022-09-20T13:25:46.306Z,99472.66
2022-09-20T13:26:52.903Z,99468.56
2022-09-20T13:28:06.269Z,99466.98
2022-09-20T13:29:22.169Z,99459.53
2022-09-20T13:30:30.107Z,99464.92
2022-09-20T13:31:34.674Z,99465.95
2022-09-20T13:32:38.764Z,99463.09
2022-09-20T13:33:42.717Z,99464.38
2022-09-20T13:34:46.741Z,99468.56
2022-09-20T13:35:53.355Z,99468.56
2022-09-20T13:36:58.941Z,99467.73
2022-09-20T13:38:09.277Z,99462.79
2022-09-20T13:39:31.429Z,99467.90
2022-09-20T13:40:38.118Z,99468.84
2022-09-20T13:41:43.000Z,99471.54
2022-09-20T13:42:50.126Z,99471.54
2022-09-20T13:43:54.355Z,99472.74
2022-09-20T13:44:58.948Z,99483.45
2022-09-20T13:46:19.074Z,99470.14
2022-09-20T13:47:31.761Z,99477.56
2022-09-20T13:48:40.750Z,99477.56
2022-09-20T13:49:44.789Z,99470.86
2022-09-20T13:50:53.382Z,99469.28
2022-09-20T13:51:54.593Z,99472.05
2022-09-20T13:53:00.955Z,99449.30
2022-09-20T13:54:30.603Z,99459.87
2022-09-20T13:55:37.876Z,99457.17
2022-09-20T13:56:42.865Z,99457.17
2022-09-20T13:57:49.985Z,99450.87
2022-09-20T13:59:01.297Z,99449.67
2022-09-20T14:00:05.958Z,99449.67
2022-09-20T14:01:20.279Z,99448.44
2022-09-20T14:02:30.076Z,99236.23
2022-09-20T14:03:35.589Z,99439.23
2022-09-20T14:04:39.757Z,99441.58
2022-09-20T14:05:57.867Z,99444.36
2022-09-20T14:07:05.055Z,99430.03
2022-09-20T14:08:12.101Z,99434.12
2022-09-20T14:09:27.775Z,99434.12
2022-09-20T14:10:39.721Z,99423.89
2022-09-20T14:11:43.822Z,99423.89
2022-09-20T14:12:49.837Z,99430.23
2022-09-20T14:13:56.834Z,99431.34
2022-09-20T14:15:03.880Z,99424.84
2022-09-20T14:16:09.987Z,99427.99
2022-09-20T14:17:18.586Z,99421.78
2022-09-20T14:18:23.235Z,99419.91
2022-09-20T14:19:32.740Z,99429.11
2022-09-20T14:20:37.221Z,99422.23
2022-09-20T14:21:44.282Z,99422.23
2022-09-20T14:22:48.847Z,99418.70
2022-09-20T14:23:55.061Z,99431.88
2022-09-20T14:25:04.817Z,99425.62
2022-09-20T14:26:24.021Z,99425.62
2022-09-20T14:27:32.284Z,99424.80
2022-09-20T14:28:37.960Z,99424.80
2022-09-20T14:29:47.533Z,99424.33
2022-09-20T14:30:51.731Z,99412.36
2022-09-20T14:31:57.620Z,99412.36
2022-09-20T14:33:03.615Z,99375.72
2022-09-20T14:34:09.031Z,99375.72
2022-09-20T14:35:18.461Z,99408.27
2022-09-20T14:36:27.026Z,99408.27
2022-09-20T14:37:48.798Z,99426.66
2022-09-20T14:38:58.275Z,99426.66
2022-09-20T14:40:08.435Z,99428.06
2022-09-20T14:41:13.966Z,99428.06
2022-09-20T14:42:31.355Z,99430.82
2022-09-20T14:43:36.515Z,99418.82
2022-09-20T14:44:41.293Z,99418.82
2022-09-20T14:45:48.249Z,99420.52
2022-09-20T14:46:52.457Z,99409.08
2022-09-20T14:47:59.663Z,99413.44